Archival Weather

Chicago O'Hare International

Chicago, Illinois (KORD)

Report from: Thursday, November 24, 2022 4:51 AM CST
Current time: Sunday, December 4, 2022 5:30 AM CST

Current weather
Weather history
Weather forecast

Temperature2.8°C (37.0°F)
Wind chill1.4°C (34.5°F)
Dew point-0.6°C (30.9°F)
Winds 3 kts (1.5 m/s, 3.5 mph) South-Southeast (160°)
Visibility10 mi. (16.1 km)
Clouds Few clouds 25,000 ft. (7,620 m)
Altimeter30.13 in.Hg (1020 mB)
Relative humidity78 %
Density altitude-1,633 ft. (-498 m)
Sea-level pressure102.1 kPa (1021 mB, 30.14 in.Hg)
Remarks System requires maintenance
Automated weather observing station with precipitation discriminator
Flight conditions Visual Meteorological Conditions
Raw dataKORD 241051Z 16003KT 10SM FEW250 03/M01 A3013 RMK AO2 SLP208 T00281006 $
An error has occurred. This application may no longer respond until reloaded. Reload 🗙